Time;durP1;ratioP1;P1;durP2;ratioP2;P2;SDS_P1;SDS_P2;PMS_P1;PMS_P2;Temp;Humidity;BMP_temperature;BMP_pressure;BME280_temperature;BME280_humidity;BME280_pressure;Samples;Min_cycle;Max_cycle;Signal;HPM_P1;HPM_P2
2023/05/04 00:01:49;;;;;;;5.57;2.77;;;11.00;99.90;;;;;;5105614;28;20743;-70
2023/05/04 00:04:16;;;;;;;5.03;3.10;;;10.90;99.90;;;;;;5105070;28;20203;-70
2023/05/04 00:06:44;;;;;;;2.97;2.60;;;10.90;99.90;;;;;;5105594;28;20257;-69
2023/05/04 00:09:14;;;;;;;4.47;2.70;;;10.90;99.90;;;;;;5105383;28;20733;-69
2023/05/04 00:11:41;;;;;;;4.10;2.60;;;11.00;99.90;;;;;;5105138;28;20307;-70
2023/05/04 00:14:08;;;;;;;5.43;2.70;;;10.90;99.90;;;;;;5105478;28;20258;-70
2023/05/04 00:16:35;;;;;;;3.03;2.73;;;10.90;99.90;;;;;;5105393;28;20202;-69
2023/05/04 00:19:02;;;;;;;4.27;2.57;;;10.90;99.90;;;;;;5096149;28;20264;-69
2023/05/04 00:21:29;;;;;;;4.57;3.10;;;10.80;99.90;;;;;;5085300;28;20285;-69
2023/05/04 00:23:57;;;;;;;3.17;2.50;;;10.70;99.90;;;;;;5085426;28;20293;-69
2023/05/04 00:26:24;;;;;;;4.37;3.10;;;10.70;99.90;;;;;;5093794;28;20683;-69
2023/05/04 00:28:51;;;;;;;4.57;2.90;;;10.70;99.90;;;;;;5103650;28;20236;-68
2023/05/04 00:31:18;;;;;;;5.60;2.93;;;10.70;99.90;;;;;;5085122;28;20301;-69
2023/05/04 00:33:45;;;;;;;5.43;2.60;;;10.70;99.90;;;;;;5084718;28;20203;-69
2023/05/04 00:36:13;;;;;;;6.53;3.50;;;10.60;99.90;;;;;;5084975;28;20203;-69
2023/05/04 00:38:48;;;;;;;3.33;2.80;;;10.60;99.90;;;;;;5084995;28;20207;-69
2023/05/04 00:41:17;;;;;;;3.87;3.00;;;10.70;99.90;;;;;;5084300;28;20210;-68
2023/05/04 00:43:44;;;;;;;3.77;3.13;;;10.60;99.90;;;;;;5085061;28;20294;-69
2023/05/04 00:46:12;;;;;;;6.10;3.00;;;10.60;99.90;;;;;;5094102;28;20230;-69
2023/05/04 00:48:39;;;;;;;5.00;3.17;;;10.60;99.90;;;;;;5091085;28;20222;-68
2023/05/04 00:51:07;;;;;;;4.80;2.90;;;10.60;99.90;;;;;;5085171;28;20202;-68
2023/05/04 00:53:36;;;;;;;5.57;2.73;;;10.50;99.90;;;;;;5085218;28;20282;-67
2023/05/04 00:56:04;;;;;;;5.20;3.00;;;10.50;99.90;;;;;;5093644;28;20282;-68
2023/05/04 00:58:33;;;;;;;6.17;3.13;;;10.50;99.90;;;;;;5105163;28;20512;-68
2023/05/04 01:01:01;;;;;;;6.23;2.80;;;10.50;99.90;;;;;;5107381;28;20289;-68
2023/05/04 01:03:28;;;;;;;4.90;2.50;;;10.50;99.90;;;;;;5109246;28;20206;-68
2023/05/04 01:06:06;;;;;;;4.50;2.70;;;10.50;99.90;;;;;;5109152;28;20289;-68
2023/05/04 01:08:39;;;;;;;5.53;2.80;;;10.40;99.90;;;;;;5094861;28;20225;-68
2023/05/04 01:11:12;;;;;;;8.37;2.90;;;10.40;99.90;;;;;;5107545;28;20199;-68
2023/05/04 01:13:40;;;;;;;5.47;2.70;;;10.30;99.90;;;;;;5106722;28;20641;-68
2023/05/04 01:16:07;;;;;;;5.80;2.67;;;10.30;99.90;;;;;;5106839;28;20229;-68
2023/05/04 01:18:35;;;;;;;8.77;2.60;;;10.30;99.90;;;;;;5091443;28;20282;-68
2023/05/04 01:21:02;;;;;;;6.57;2.57;;;10.30;99.90;;;;;;5102272;28;20233;-68
2023/05/04 01:23:30;;;;;;;8.63;3.27;;;10.30;99.90;;;;;;5093992;28;20301;-67
2023/05/04 01:26:02;;;;;;;6.10;2.57;;;10.30;99.90;;;;;;5088206;28;20317;-68
2023/05/04 01:28:38;;;;;;;4.20;2.63;;;10.20;99.90;;;;;;5087998;28;20822;-68
2023/05/04 01:31:06;;;;;;;6.50;3.90;;;10.20;99.90;;;;;;5097097;28;20316;-68
2023/05/04 01:33:33;;;;;;;5.43;2.90;;;10.20;99.90;;;;;;5108451;28;20316;-68
2023/05/04 01:36:01;;;;;;;4.80;2.27;;;10.20;99.90;;;;;;5093971;28;20199;-68
2023/05/04 01:38:30;;;;;;;5.37;3.00;;;10.20;99.90;;;;;;5105183;28;20635;-68
2023/05/04 01:40:57;;;;;;;5.07;2.93;;;10.20;99.90;;;;;;5108249;28;20744;-68
2023/05/04 01:43:24;;;;;;;6.43;2.80;;;10.20;99.90;;;;;;5107867;28;20198;-68
2023/05/04 01:45:51;;;;;;;3.50;2.37;;;10.10;99.90;;;;;;5108302;28;20213;-69
2023/05/04 01:48:18;;;;;;;5.90;3.13;;;10.10;99.90;;;;;;5091648;28;20404;-69
2023/05/04 01:50:44;;;;;;;7.87;2.67;;;10.10;99.90;;;;;;5087400;28;20203;-69
2023/05/04 01:53:11;;;;;;;5.67;2.70;;;10.00;99.90;;;;;;5087249;28;20218;-69
2023/05/04 01:55:40;;;;;;;5.33;2.63;;;10.00;99.90;;;;;;5087463;28;20301;-69
2023/05/04 01:58:06;;;;;;;4.27;3.00;;;10.00;99.90;;;;;;5087230;28;20737;-69
2023/05/04 02:00:33;;;;;;;5.90;2.60;;;9.90;99.90;;;;;;5105172;27;20214;-69
2023/05/04 02:03:01;;;;;;;5.13;2.63;;;9.80;99.90;;;;;;5107617;28;20296;-69
2023/05/04 02:05:27;;;;;;;5.30;3.13;;;9.80;99.90;;;;;;5107810;28;20206;-69
2023/05/04 02:07:54;;;;;;;6.57;2.53;;;9.90;99.90;;;;;;5107607;28;20232;-68
2023/05/04 02:10:21;;;;;;;6.60;2.93;;;9.80;99.90;;;;;;5105830;28;20290;-68
2023/05/04 02:12:50;;;;;;;4.60;2.73;;;9.80;99.90;;;;;;5103431;28;20340;-67
2023/05/04 02:15:17;;;;;;;5.90;2.57;;;9.80;99.90;;;;;;5107999;28;20321;-69
2023/05/04 02:17:45;;;;;;;5.40;2.83;;;9.80;99.90;;;;;;5107451;28;20212;-68
2023/05/04 02:20:13;;;;;;;5.67;2.93;;;9.80;99.90;;;;;;5103041;28;20214;-68
2023/05/04 02:22:40;;;;;;;4.93;2.63;;;9.70;99.90;;;;;;5087162;28;20199;-68
2023/05/04 02:25:08;;;;;;;5.87;2.47;;;9.70;99.90;;;;;;5086204;28;20665;-69
2023/05/04 02:27:35;;;;;;;5.40;3.00;;;9.70;99.90;;;;;;5091934;28;20286;-69
2023/05/04 02:30:04;;;;;;;4.43;3.00;;;9.60;99.90;;;;;;5095577;27;20307;-69
2023/05/04 02:32:31;;;;;;;5.23;2.70;;;9.60;99.90;;;;;;5094011;28;20202;-69
2023/05/04 02:34:58;;;;;;;4.87;2.77;;;9.60;99.90;;;;;;5094564;28;20212;-69
2023/05/04 02:37:25;;;;;;;6.23;3.53;;;9.60;99.90;;;;;;5086036;28;20297;-69
2023/05/04 02:39:51;;;;;;;7.33;4.57;;;9.60;99.90;;;;;;5084678;28;20219;-69
2023/05/04 02:42:19;;;;;;;13.63;5.37;;;9.60;99.90;;;;;;5085225;28;20290;-69
2023/05/04 02:44:46;;;;;;;11.33;7.23;;;9.60;99.90;;;;;;5085237;28;20203;-69
2023/05/04 02:47:14;;;;;;;9.20;7.67;;;9.60;99.90;;;;;;5084999;28;20737;-69
2023/05/04 02:49:41;;;;;;;11.90;8.83;;;9.60;99.90;;;;;;5085120;28;20241;-69
2023/05/04 02:52:08;;;;;;;15.33;11.13;;;9.60;99.90;;;;;;5105241;28;20212;-69
2023/05/04 02:54:37;;;;;;;18.13;11.00;;;9.50;99.90;;;;;;5104081;28;20206;-69
2023/05/04 02:57:07;;;;;;;14.50;9.43;;;9.50;99.90;;;;;;5085222;28;20707;-69
2023/05/04 02:59:34;;;;;;;14.43;9.63;;;9.50;99.90;;;;;;5092897;28;20327;-69
2023/05/04 03:02:01;;;;;;;12.83;9.53;;;9.50;99.90;;;;;;5105082;28;20751;-69
2023/05/04 03:04:29;;;;;;;12.73;8.83;;;9.50;99.90;;;;;;5102607;28;20282;-69
2023/05/04 03:06:58;;;;;;;14.17;8.17;;;9.50;99.90;;;;;;5088899;28;20221;-69
2023/05/04 03:09:25;;;;;;;13.20;8.20;;;9.50;99.90;;;;;;5085643;28;20234;-69
2023/05/04 03:11:52;;;;;;;10.53;6.90;;;9.50;99.90;;;;;;5101189;27;20233;-70
2023/05/04 03:14:19;;;;;;;10.63;6.47;;;9.50;99.90;;;;;;5085316;28;20744;-70
2023/05/04 03:16:45;;;;;;;9.67;6.27;;;9.40;99.90;;;;;;5105523;28;20210;-69
2023/05/04 03:19:12;;;;;;;10.40;6.53;;;9.40;99.90;;;;;;5105521;28;20304;-69
2023/05/04 03:21:41;;;;;;;11.27;6.10;;;9.40;99.90;;;;;;5105520;28;20206;-69
2023/05/04 03:24:09;;;;;;;8.30;5.63;;;9.30;99.90;;;;;;5091674;28;20234;-69
2023/05/04 03:26:37;;;;;;;12.00;5.17;;;9.40;99.90;;;;;;5085406;28;20245;-70
2023/05/04 03:29:04;;;;;;;7.50;4.90;;;9.30;99.90;;;;;;5092898;27;20344;-69
2023/05/04 03:31:31;;;;;;;8.43;4.47;;;9.30;99.90;;;;;;5126734;27;20216;-69
2023/05/04 03:33:58;;;;;;;5.30;4.50;;;9.30;99.90;;;;;;5127127;27;20212;-69
2023/05/04 03:36:25;;;;;;;7.13;5.00;;;9.20;99.90;;;;;;5126892;27;20292;-69
2023/05/04 03:38:53;;;;;;;5.80;3.90;;;9.20;99.90;;;;;;5126630;27;20297;-69
2023/05/04 03:41:20;;;;;;;5.00;3.70;;;9.20;99.90;;;;;;5126199;27;20296;-69
2023/05/04 03:43:47;;;;;;;7.53;3.67;;;9.30;99.90;;;;;;5126890;27;20212;-69
2023/05/04 03:46:14;;;;;;;4.87;3.40;;;9.10;99.90;;;;;;5126496;27;20211;-70
2023/05/04 03:48:41;;;;;;;4.97;3.50;;;9.20;99.90;;;;;;5116949;27;20294;-69
2023/05/04 03:51:08;;;;;;;5.23;3.57;;;9.20;99.90;;;;;;5105729;28;20235;-69
2023/05/04 03:53:35;;;;;;;5.90;3.10;;;9.20;99.90;;;;;;5106104;28;20628;-69
2023/05/04 03:56:03;;;;;;;5.23;3.40;;;9.20;99.90;;;;;;5105793;28;20210;-69
2023/05/04 03:58:30;;;;;;;4.33;3.30;;;9.20;99.90;;;;;;5105907;28;20301;-69
2023/05/04 04:00:57;;;;;;;6.23;3.37;;;9.20;99.90;;;;;;5105973;28;20309;-69
2023/05/04 04:03:24;;;;;;;5.00;3.50;;;9.20;99.90;;;;;;5105254;28;20214;-70
2023/05/04 04:05:51;;;;;;;7.40;3.77;;;9.10;99.90;;;;;;5105607;28;20703;-69
2023/05/04 04:08:17;;;;;;;5.87;3.40;;;9.10;99.90;;;;;;5105845;28;20288;-70
2023/05/04 04:10:44;;;;;;;5.07;3.43;;;9.20;99.90;;;;;;5107264;27;20296;-69
2023/05/04 04:13:12;;;;;;;7.30;3.90;;;9.20;99.90;;;;;;5125475;27;20285;-70
2023/05/04 04:15:43;;;;;;;8.77;4.20;;;9.20;99.90;;;;;;5126286;27;20745;-69
2023/05/04 04:18:10;;;;;;;6.53;3.60;;;9.20;99.90;;;;;;5111649;27;20205;-70
2023/05/04 04:20:37;;;;;;;6.53;3.70;;;9.20;99.90;;;;;;5105662;28;20297;-70
2023/05/04 04:23:04;;;;;;;5.37;3.80;;;9.20;99.90;;;;;;5105123;28;20297;-70
2023/05/04 04:25:31;;;;;;;7.43;4.13;;;9.20;99.90;;;;;;5104888;28;20206;-70
2023/05/04 04:27:58;;;;;;;8.27;4.60;;;9.20;99.90;;;;;;5105202;28;20843;-69
2023/05/04 04:30:26;;;;;;;19.50;5.43;;;9.30;99.90;;;;;;5105437;28;20320;-69
2023/05/04 04:32:55;;;;;;;11.83;4.40;;;9.30;99.90;;;;;;5105414;28;20304;-69
2023/05/04 04:35:22;;;;;;;9.20;4.90;;;9.40;99.90;;;;;;5106443;28;20293;-70
2023/05/04 04:37:49;;;;;;;7.20;4.30;;;9.50;99.90;;;;;;5109386;28;20281;-69
2023/05/04 04:40:16;;;;;;;10.40;4.80;;;9.60;99.90;;;;;;5109160;28;20305;-70
2023/05/04 04:42:43;;;;;;;7.93;4.73;;;9.70;99.90;;;;;;5109309;28;20202;-70
2023/05/04 04:45:11;;;;;;;10.67;4.50;;;9.70;99.90;;;;;;5109315;28;20293;-69
2023/05/04 04:47:40;;;;;;;9.77;5.23;;;9.70;99.90;;;;;;5108158;28;20237;-70
2023/05/04 04:50:08;;;;;;;13.80;4.93;;;9.70;99.90;;;;;;5088818;28;20233;-70
2023/05/04 04:52:35;;;;;;;9.23;4.70;;;9.70;99.90;;;;;;5088999;28;20577;-69
2023/05/04 04:55:03;;;;;;;8.77;3.80;;;9.60;99.90;;;;;;5088555;28;20752;-69
2023/05/04 04:57:29;;;;;;;6.83;3.83;;;9.60;99.90;;;;;;5088646;28;20665;-70
2023/05/04 04:59:57;;;;;;;7.17;4.03;;;9.60;99.90;;;;;;5095412;27;20297;-69
2023/05/04 05:02:24;;;;;;;13.97;3.87;;;9.60;99.90;;;;;;5088678;28;20211;-69
2023/05/04 05:04:52;;;;;;;13.00;4.70;;;9.60;99.90;;;;;;5088580;28;20729;-69
2023/05/04 05:07:19;;;;;;;12.30;4.40;;;9.60;99.90;;;;;;5092945;28;20218;-70
2023/05/04 05:09:46;;;;;;;9.27;4.07;;;9.60;99.90;;;;;;5102584;28;20233;-69
2023/05/04 05:12:13;;;;;;;6.13;3.70;;;9.70;99.90;;;;;;5107625;28;20321;-70
2023/05/04 05:14:40;;;;;;;6.40;4.30;;;9.70;99.90;;;;;;5108968;28;20298;-70
2023/05/04 05:17:07;;;;;;;8.13;3.90;;;9.70;99.90;;;;;;5108522;28;20313;-70
2023/05/04 05:19:35;;;;;;;7.60;3.40;;;9.70;99.90;;;;;;5102008;28;20672;-69
2023/05/04 05:22:04;;;;;;;7.10;3.30;;;9.80;99.90;;;;;;5088559;28;20206;-70
2023/05/04 05:24:31;;;;;;;4.53;3.17;;;9.80;99.90;;;;;;5088135;28;20306;-70
2023/05/04 05:26:58;;;;;;;9.10;3.57;;;9.90;99.90;;;;;;5087819;28;20744;-69
2023/05/04 05:29:25;;;;;;;5.90;3.30;;;9.90;99.90;;;;;;5094058;28;20577;-70
2023/05/04 05:31:51;;;;;;;6.53;3.00;;;10.00;99.90;;;;;;5108488;28;20285;-70
2023/05/04 05:34:18;;;;;;;4.73;2.90;;;10.10;99.90;;;;;;5108362;28;20322;-70
2023/05/04 05:36:47;;;;;;;5.60;2.90;;;10.10;99.90;;;;;;5108322;28;20289;-70
2023/05/04 05:39:15;;;;;;;4.73;3.00;;;10.20;99.90;;;;;;5107997;28;20211;-69
2023/05/04 05:41:42;;;;;;;5.23;2.63;;;10.20;99.90;;;;;;5107960;27;20281;-69
2023/05/04 05:44:09;;;;;;;6.23;2.87;;;10.30;99.90;;;;;;5108358;28;20643;-70
2023/05/04 05:46:36;;;;;;;6.17;3.17;;;10.30;99.90;;;;;;5107535;28;20210;-69
2023/05/04 05:49:04;;;;;;;5.50;2.97;;;10.30;99.90;;;;;;5095056;28;20329;-71
2023/05/04 05:51:31;;;;;;;4.57;2.80;;;10.40;99.90;;;;;;5087727;28;20207;-70
2023/05/04 05:53:58;;;;;;;6.53;3.27;;;10.40;99.90;;;;;;5087550;28;20213;-70
2023/05/04 05:56:26;;;;;;;7.43;3.23;;;10.50;99.90;;;;;;5089911;28;20293;-69
2023/05/04 05:58:53;;;;;;;5.03;2.77;;;10.50;99.90;;;;;;5089365;28;20218;-69
2023/05/04 06:01:20;;;;;;;4.67;2.80;;;10.50;99.90;;;;;;5108127;28;20210;-70
2023/05/04 06:03:47;;;;;;;5.83;3.03;;;10.50;99.90;;;;;;5107773;28;20314;-70
2023/05/04 06:06:14;;;;;;;4.27;2.70;;;10.60;99.90;;;;;;5107844;28;20244;-70
2023/05/04 06:08:43;;;;;;;6.10;3.10;;;10.60;99.90;;;;;;5107667;28;20700;-70
2023/05/04 06:11:11;;;;;;;5.80;2.73;;;10.60;99.90;;;;;;5107530;28;20267;-70
2023/05/04 06:13:39;;;;;;;7.00;3.00;;;10.70;99.90;;;;;;5107942;28;20186;-70
2023/05/04 06:16:06;;;;;;;4.63;2.97;;;10.70;99.90;;;;;;5098539;28;20213;-70
2023/05/04 06:18:33;;;;;;;4.73;3.07;;;10.70;99.90;;;;;;5104932;28;20295;-70
2023/05/04 06:21:00;;;;;;;4.47;3.13;;;10.80;99.90;;;;;;5107504;27;20301;-69
2023/05/04 06:23:28;;;;;;;10.10;2.77;;;10.80;99.90;;;;;;5106925;28;20206;-69
2023/05/04 06:25:55;;;;;;;3.30;2.50;;;10.80;99.90;;;;;;5106799;28;20210;-70
2023/05/04 06:28:22;;;;;;;3.70;2.87;;;10.90;99.90;;;;;;5107303;28;20234;-70
2023/05/04 06:30:50;;;;;;;7.60;3.33;;;10.90;99.90;;;;;;5107214;28;20244;-70
2023/05/04 06:33:17;;;;;;;7.37;3.37;;;10.90;99.90;;;;;;5106757;28;20237;-70
2023/05/04 06:35:44;;;;;;;6.57;3.10;;;10.90;99.90;;;;;;5107132;28;20316;-70
2023/05/04 06:38:11;;;;;;;6.27;3.53;;;11.00;99.90;;;;;;5106862;28;20217;-70
2023/05/04 06:40:38;;;;;;;5.90;3.00;;;11.00;99.90;;;;;;5107012;28;20212;-70
2023/05/04 06:43:05;;;;;;;8.90;3.37;;;11.00;99.90;;;;;;5106734;27;20242;-69
2023/05/04 06:45:34;;;;;;;6.00;3.33;;;11.10;99.90;;;;;;5106873;28;20262;-70
2023/05/04 06:48:03;;;;;;;4.47;3.67;;;11.10;99.90;;;;;;5107252;28;20210;-70
2023/05/04 06:50:31;;;;;;;4.90;3.20;;;11.20;99.90;;;;;;5106572;28;20407;-70
2023/05/04 06:53:03;;;;;;;3.37;3.00;;;11.20;99.90;;;;;;5098812;27;20218;-70
2023/05/04 06:55:30;;;;;;;5.90;3.10;;;11.20;99.90;;;;;;5085999;28;20206;-70
2023/05/04 06:57:57;;;;;;;11.47;3.57;;;11.20;99.90;;;;;;5085932;28;20211;-70
2023/05/04 07:00:25;;;;;;;4.50;3.00;;;11.30;99.90;;;;;;5101138;28;20293;-70
2023/05/04 07:02:52;;;;;;;5.03;3.40;;;11.30;99.90;;;;;;5106746;28;20195;-70
2023/05/04 07:05:22;;;;;;;7.40;3.17;;;11.30;99.90;;;;;;5106643;28;20594;-70
2023/05/04 07:07:49;;;;;;;5.83;2.90;;;11.30;99.90;;;;;;5106842;28;20205;-70
2023/05/04 07:10:16;;;;;;;5.50;3.27;;;11.40;99.90;;;;;;5106103;28;21026;-69
2023/05/04 07:12:43;;;;;;;8.87;2.87;;;11.40;99.90;;;;;;5118061;27;20233;-70
2023/05/04 07:15:10;;;;;;;8.83;2.90;;;11.50;99.90;;;;;;5127019;27;20237;-70
2023/05/04 07:17:38;;;;;;;6.30;2.93;;;11.50;99.90;;;;;;5117117;27;20206;-70
2023/05/04 07:20:06;;;;;;;6.00;2.60;;;11.60;99.90;;;;;;5106166;28;20329;-69
2023/05/04 07:22:34;;;;;;;5.93;2.90;;;11.60;99.90;;;;;;5106275;28;20743;-69
2023/05/04 07:25:02;;;;;;;5.10;2.47;;;11.70;99.90;;;;;;5106061;28;20202;-70
2023/05/04 07:27:29;;;;;;;6.80;2.97;;;11.70;99.90;;;;;;5106171;28;20302;-69
2023/05/04 07:29:55;;;;;;;5.83;2.70;;;11.70;99.90;;;;;;5117122;27;20332;-70
2023/05/04 07:32:23;;;;;;;10.17;3.20;;;11.80;99.90;;;;;;5126471;27;20300;-69
2023/05/04 07:34:50;;;;;;;75.63;10.37;;;11.80;99.90;;;;;;5126546;27;20208;-69
2023/05/04 07:37:16;;;;;;;18.83;4.03;;;11.90;99.90;;;;;;5126780;27;20262;-69
2023/05/04 07:39:45;;;;;;;10.73;3.33;;;12.00;99.90;;;;;;5126686;27;20297;-69
2023/05/04 07:42:12;;;;;;;4.40;2.57;;;12.00;99.90;;;;;;5126451;27;20213;-70
2023/05/04 07:44:40;;;;;;;4.50;2.87;;;12.10;99.90;;;;;;5126296;27;20305;-70
2023/05/04 07:47:07;;;;;;;4.03;2.60;;;12.10;99.90;;;;;;5126568;27;20233;-69
2023/05/04 07:49:34;;;;;;;2.87;2.57;;;12.20;99.90;;;;;;5096776;27;20230;-69
2023/05/04 07:52:01;;;;;;;5.90;2.40;;;12.30;99.90;;;;;;5086131;28;20290;-70
2023/05/04 07:54:28;;;;;;;10.73;2.43;;;12.40;99.90;;;;;;5085852;28;20609;-69
2023/05/04 07:56:56;;;;;;;5.80;2.30;;;12.40;99.90;;;;;;5085360;28;20213;-70
2023/05/04 07:59:23;;;;;;;4.07;2.30;;;12.40;99.90;;;;;;5091480;28;20209;-70
2023/05/04 08:01:50;;;;;;;6.50;2.73;;;12.50;99.90;;;;;;5106095;28;20757;-70
2023/05/04 08:04:16;;;;;;;4.37;2.50;;;12.50;99.90;;;;;;5105840;28;20284;-69
2023/05/04 08:06:44;;;;;;;4.43;2.30;;;12.60;99.90;;;;;;5106037;28;20206;-70
2023/05/04 08:09:11;;;;;;;7.20;2.57;;;12.70;99.90;;;;;;5105252;28;20321;-69
2023/05/04 08:11:39;;;;;;;2.73;2.30;;;12.70;99.90;;;;;;5105315;28;20248;-70
2023/05/04 08:14:08;;;;;;;5.77;2.30;;;12.70;99.90;;;;;;5105995;28;20209;-70
2023/05/04 08:16:35;;;;;;;8.47;3.13;;;12.80;99.90;;;;;;5105836;28;20300;-69
2023/05/04 08:19:02;;;;;;;4.50;2.50;;;12.80;99.90;;;;;;5105991;28;20640;-70
2023/05/04 08:21:29;;;;;;;3.73;2.23;;;12.80;99.90;;;;;;5105430;28;20740;-70
2023/05/04 08:23:56;;;;;;;5.77;2.20;;;13.00;99.90;;;;;;5105597;28;20263;-70
2023/05/04 08:26:23;;;;;;;2.07;1.87;;;13.10;99.90;;;;;;5105306;28;20201;-70
2023/05/04 08:28:50;;;;;;;5.10;1.93;;;13.10;99.90;;;;;;5105968;28;20217;-70
2023/05/04 08:31:18;;;;;;;2.80;1.90;;;13.10;99.90;;;;;;5105694;28;20358;-70
2023/05/04 08:33:46;;;;;;;3.83;2.17;;;13.20;99.90;;;;;;5105221;28;20743;-70
2023/05/04 08:36:13;;;;;;;3.07;1.97;;;13.30;99.90;;;;;;5105190;28;20656;-70
2023/05/04 08:38:39;;;;;;;12.00;2.93;;;13.40;99.90;;;;;;5105628;28;20775;-69
2023/05/04 08:41:07;;;;;;;3.07;2.10;;;13.50;99.90;;;;;;5105370;28;20206;-70
2023/05/04 08:43:35;;;;;;;5.57;2.33;;;13.60;99.90;;;;;;5105497;28;20210;-70
2023/05/04 08:46:03;;;;;;;5.00;2.03;;;13.60;99.90;;;;;;5105385;28;20623;-70
2023/05/04 08:48:33;;;;;;;3.37;1.70;;;13.60;99.90;;;;;;5096633;28;20207;-70
2023/05/04 08:51:03;;;;;;;2.33;1.67;;;13.70;99.20;;;;;;5084986;28;20227;-70
2023/05/04 08:53:31;;;;;;;3.90;1.80;;;13.80;99.70;;;;;;5099260;28;20650;-70
2023/05/04 08:56:02;;;;;;;3.30;2.23;;;13.80;99.90;;;;;;5104850;28;20217;-70
2023/05/04 08:58:30;;;;;;;3.80;2.23;;;13.80;99.40;;;;;;5105206;28;20199;-69
2023/05/04 09:00:58;;;;;;;2.83;2.07;;;14.00;98.90;;;;;;5105172;28;20245;-70
2023/05/04 09:03:26;;;;;;;5.47;1.90;;;14.10;98.70;;;;;;5105197;28;20297;-69
2023/05/04 09:05:55;;;;;;;3.33;2.13;;;14.20;99.40;;;;;;5087511;28;20226;-69
2023/05/04 09:08:22;;;;;;;2.87;1.93;;;14.20;98.90;;;;;;5084555;28;20298;-70
2023/05/04 09:10:49;;;;;;;7.07;2.07;;;14.20;98.60;;;;;;5084475;28;21085;-69
2023/05/04 09:13:16;;;;;;;3.27;2.13;;;14.30;98.50;;;;;;5084446;28;20303;-70
2023/05/04 09:15:43;;;;;;;3.50;1.87;;;14.30;98.50;;;;;;5084866;28;20251;-69
2023/05/04 09:18:10;;;;;;;4.13;2.03;;;14.40;98.90;;;;;;5098739;28;20217;-70
2023/05/04 09:20:45;;;;;;;4.03;1.90;;;14.50;98.80;;;;;;5105311;28;20634;-69
2023/05/04 09:23:15;;;;;;;3.90;2.30;;;14.50;98.60;;;;;;5108473;28;20213;-69
2023/05/04 09:25:49;;;;;;;3.40;1.93;;;14.50;98.20;;;;;;5108561;28;20550;-69
2023/05/04 09:28:17;;;;;;;4.57;1.97;;;14.60;97.90;;;;;;5108097;28;20205;-70
2023/05/04 09:30:43;;;;;;;3.63;1.97;;;14.70;98.30;;;;;;5091058;28;20239;-70
2023/05/04 09:33:11;;;;;;;2.17;1.97;;;14.70;98.30;;;;;;5088072;28;20558;-69
2023/05/04 09:35:40;;;;;;;4.80;2.27;;;14.70;98.00;;;;;;5087671;28;20676;-70
2023/05/04 09:38:07;;;;;;;4.10;1.90;;;14.80;97.80;;;;;;5087505;28;20293;-70
2023/05/04 09:40:39;;;;;;;3.63;1.83;;;14.90;98.50;;;;;;5093821;27;20301;-69
2023/05/04 09:43:07;;;;;;;3.80;2.43;;;15.00;98.00;;;;;;5108055;28;20190;-70
2023/05/04 09:45:40;;;;;;;3.43;2.10;;;15.20;96.70;;;;;;5108331;28;20229;-70
2023/05/04 09:48:19;;;;;;;2.17;1.67;;;15.20;96.30;;;;;;5103629;28;20294;-70
2023/05/04 09:50:51;;;;;;;3.27;2.00;;;15.30;96.90;;;;;;5107900;28;20230;-70
2023/05/04 09:53:20;;;;;;;4.97;2.23;;;15.40;97.20;;;;;;5107965;28;20293;-70
2023/05/04 09:55:57;;;;;;;3.27;1.90;;;15.50;97.40;;;;;;5108101;28;20210;-70
2023/05/04 09:58:24;;;;;;;4.90;2.13;;;15.50;97.30;;;;;;5108258;28;20229;-70
2023/05/04 10:00:52;;;;;;;3.80;2.20;;;15.60;97.60;;;;;;5107955;27;20297;-70
2023/05/04 10:03:20;;;;;;;5.40;2.10;;;15.60;97.60;;;;;;5107473;28;20202;-70
2023/05/04 10:05:48;;;;;;;3.67;2.00;;;15.60;97.20;;;;;;5107792;28;20308;-70
2023/05/04 10:08:17;;;;;;;4.30;1.93;;;15.60;96.80;;;;;;5107531;28;20460;-70
2023/05/04 10:10:44;;;;;;;4.37;2.00;;;15.70;96.90;;;;;;5107402;28;20334;-70
2023/05/04 10:13:12;;;;;;;3.17;2.10;;;15.70;97.10;;;;;;5107103;28;20238;-70
2023/05/04 10:15:50;;;;;;;7.40;2.03;;;15.80;95.90;;;;;;5107130;27;20992;-70
2023/05/04 10:18:26;;;;;;;3.77;1.97;;;15.80;96.20;;;;;;5107233;28;20631;-70
2023/05/04 10:21:14;;;;;;;3.30;1.80;;;15.90;96.30;;;;;;5106789;28;20204;-70
2023/05/04 10:24:06;;;;;;;6.10;2.13;;;15.90;95.90;;;;;;5107145;28;20637;-70
2023/05/04 10:26:58;;;;;;;4.53;2.20;;;16.10;95.00;;;;;;5107035;28;20205;-70
2023/05/04 10:29:28;;;;;;;4.37;1.80;;;16.30;94.90;;;;;;5105452;27;20202;-70
2023/05/04 10:31:56;;;;;;;2.87;1.70;;;16.30;95.30;;;;;;5107080;28;20286;-70
2023/05/04 10:34:28;;;;;;;4.27;2.10;;;16.40;96.10;;;;;;5107066;28;20595;-70
2023/05/04 10:36:55;;;;;;;4.90;2.50;;;16.50;94.50;;;;;;5105641;27;20313;-70
2023/05/04 10:39:23;;;;;;;2.30;1.53;;;16.60;93.10;;;;;;5086597;28;20203;-70
2023/05/04 10:41:58;;;;;;;5.50;2.13;;;16.70;93.70;;;;;;5086427;28;20250;-70
2023/05/04 10:44:27;;;;;;;3.80;1.80;;;16.70;93.80;;;;;;5087378;28;20205;-70
2023/05/04 10:46:58;;;;;;;1.93;1.70;;;16.70;94.10;;;;;;5106951;28;20307;-70
2023/05/04 10:49:25;;;;;;;4.93;2.03;;;16.60;93.60;;;;;;5090562;28;20289;-70
2023/05/04 10:52:05;;;;;;;2.73;1.80;;;16.80;93.20;;;;;;5086179;28;20907;-70
2023/05/04 10:54:32;;;;;;;3.13;1.73;;;16.80;94.20;;;;;;5086234;28;20195;-69
2023/05/04 10:57:04;;;;;;;2.00;1.87;;;17.00;94.70;;;;;;5091893;28;20214;-69
2023/05/04 10:59:33;;;;;;;4.00;2.00;;;17.00;94.50;;;;;;5099340;28;20683;-69
2023/05/04 11:02:01;;;;;;;3.20;2.00;;;17.00;94.00;;;;;;5086374;28;20286;-69
2023/05/04 11:04:28;;;;;;;2.60;2.20;;;17.10;93.90;;;;;;5086333;28;20231;-69
2023/05/04 11:06:59;;;;;;;4.70;2.10;;;17.20;93.90;;;;;;5086303;28;20209;-70
2023/05/04 11:09:27;;;;;;;2.77;1.83;;;17.20;93.60;;;;;;5085900;28;20218;-70
2023/05/04 11:11:54;;;;;;;4.37;2.00;;;17.40;93.70;;;;;;5085687;28;20265;-69
2023/05/04 11:14:24;;;;;;;2.93;2.03;;;17.40;93.20;;;;;;5086050;28;20241;-70
2023/05/04 11:16:53;;;;;;;6.83;2.10;;;17.50;93.20;;;;;;5089455;28;20202;-69
2023/05/04 11:19:20;;;;;;;4.67;2.27;;;17.60;93.70;;;;;;5105988;28;20759;-69
2023/05/04 11:21:47;;;;;;;3.30;2.10;;;17.80;93.30;;;;;;5106152;28;20214;-69
2023/05/04 11:24:14;;;;;;;5.63;2.50;;;17.90;92.90;;;;;;5106025;28;20206;-69
2023/05/04 11:26:48;;;;;;;5.20;2.20;;;18.00;92.40;;;;;;5106076;28;20215;-69
2023/05/04 11:29:15;;;;;;;2.93;2.20;;;18.00;92.50;;;;;;5100908;28;20696;-69
2023/05/04 11:31:43;;;;;;;2.53;2.00;;;18.00;92.60;;;;;;5085710;28;20226;-69
2023/05/04 11:34:19;;;;;;;3.73;2.03;;;18.10;93.00;;;;;;5097948;28;20206;-69
2023/05/04 11:36:48;;;;;;;3.53;1.70;;;18.10;92.30;;;;;;5105790;28;20190;-69
2023/05/04 11:39:15;;;;;;;5.93;1.87;;;18.20;91.90;;;;;;5106220;28;20217;-69
2023/05/04 11:41:44;;;;;;;3.00;1.90;;;18.30;91.80;;;;;;5096118;28;20242;-69
2023/05/04 11:44:11;;;;;;;3.73;2.17;;;18.50;91.40;;;;;;5085035;28;20567;-69
2023/05/04 11:46:38;;;;;;;3.33;2.60;;;18.50;91.60;;;;;;5085214;28;20298;-69
2023/05/04 11:49:06;;;;;;;5.20;2.23;;;18.60;91.20;;;;;;5085191;28;20681;-69
2023/05/04 11:51:34;;;;;;;4.67;2.43;;;18.60;90.60;;;;;;5085382;28;20544;-69
2023/05/04 11:54:01;;;;;;;2.37;1.50;;;18.80;91.50;;;;;;5109940;27;20206;-70
2023/05/04 11:56:28;;;;;;;4.10;2.03;;;18.80;90.40;;;;;;5125986;27;20320;-69
2023/05/04 11:58:55;;;;;;;5.47;2.20;;;18.80;90.60;;;;;;5123900;27;20284;-69
2023/05/04 12:01:22;;;;;;;4.28;2.10;;;18.80;90.60;;;;;;5105688;28;20233;-69
2023/05/04 12:03:54;;;;;;;4.63;2.33;;;18.90;90.00;;;;;;5105460;28;20228;-69
2023/05/04 12:06:31;;;;;;;3.43;1.93;;;18.90;89.00;;;;;;5106087;28;20247;-69
2023/05/04 12:09:04;;;;;;;3.43;2.30;;;19.00;89.80;;;;;;5105841;28;20667;-69
2023/05/04 12:11:31;;;;;;;2.73;2.07;;;19.00;88.00;;;;;;5105220;28;20244;-69
2023/05/04 12:14:06;;;;;;;3.70;1.77;;;19.10;88.30;;;;;;5105722;28;20751;-69
2023/05/04 12:16:33;;;;;;;3.57;1.90;;;19.20;88.70;;;;;;5105724;28;20201;-69
2023/05/04 12:19:04;;;;;;;2.90;2.00;;;19.20;89.80;;;;;;5105716;28;20293;-69
2023/05/04 12:21:32;;;;;;;3.27;2.20;;;19.30;87.50;;;;;;5105417;28;20202;-69
2023/05/04 12:23:59;;;;;;;3.30;2.00;;;19.20;87.50;;;;;;5105491;28;20233;-69
2023/05/04 12:26:27;;;;;;;4.47;1.90;;;19.30;88.40;;;;;;5105098;28;20655;-68
2023/05/04 12:28:55;;;;;;;2.65;1.88;;;19.40;89.80;;;;;;5103183;28;20202;-68
2023/05/04 12:31:22;;;;;;;3.45;2.10;;;19.40;88.10;;;;;;5102114;28;20230;-68
2023/05/04 12:33:50;;;;;;;4.07;2.30;;;19.50;88.10;;;;;;5105016;28;20241;-68
2023/05/04 12:36:17;;;;;;;2.10;1.92;;;19.60;86.90;;;;;;5105128;28;20202;-68
2023/05/04 12:38:44;;;;;;;2.90;2.03;;;19.70;88.00;;;;;;5089009;28;20234;-68
2023/05/04 12:41:11;;;;;;;8.93;2.35;;;19.90;88.50;;;;;;5084638;28;20210;-69
2023/05/04 12:43:40;;;;;;;6.22;2.47;;;20.00;88.00;;;;;;5084560;28;20959;-68
2023/05/04 12:46:07;;;;;;;2.55;1.90;;;20.20;87.40;;;;;;5085202;28;20202;-69
2023/05/04 12:48:34;;;;;;;3.63;2.00;;;20.20;87.00;;;;;;5084581;28;20213;-69
2023/05/04 12:51:02;;;;;;;5.57;2.22;;;20.40;88.10;;;;;;5103116;28;20830;-69
2023/05/04 12:53:30;;;;;;;2.50;2.13;;;20.30;86.80;;;;;;5105434;28;20206;-69